sensor_id;sensor_type;location;lat;lon;timestamp;P1;durP1;ratioP1;P2;durP2;ratioP2
2722;SDS011;1369;53.216;10.396;2022-10-04T00:02:49;1.50;;;0.90;;
2722;SDS011;1369;53.216;10.396;2022-10-04T00:05:16;1.47;;;0.90;;
2722;SDS011;1369;53.216;10.396;2022-10-04T00:07:49;1.20;;;1.00;;
2722;SDS011;1369;53.216;10.396;2022-10-04T00:10:21;1.30;;;1.00;;
2722;SDS011;1369;53.216;10.396;2022-10-04T00:12:50;1.30;;;0.90;;
2722;SDS011;1369;53.216;10.396;2022-10-04T00:15:32;1.30;;;1.00;;
2722;SDS011;1369;53.216;10.396;2022-10-04T00:31:11;1.53;;;1.43;;
2722;SDS011;1369;53.216;10.396;2022-10-04T00:33:42;1.30;;;1.10;;
2722;SDS011;1369;53.216;10.396;2022-10-04T00:41:35;2.07;;;1.87;;
2722;SDS011;1369;53.216;10.396;2022-10-04T00:44:03;1.20;;;0.97;;
2722;SDS011;1369;53.216;10.396;2022-10-04T00:46:34;1.30;;;0.90;;
2722;SDS011;1369;53.216;10.396;2022-10-04T00:49:04;1.27;;;1.00;;
2722;SDS011;1369;53.216;10.396;2022-10-04T00:51:42;1.30;;;1.13;;
2722;SDS011;1369;53.216;10.396;2022-10-04T00:56:43;2.30;;;1.33;;
2722;SDS011;1369;53.216;10.396;2022-10-04T01:02:03;1.47;;;1.10;;
2722;SDS011;1369;53.216;10.396;2022-10-04T01:04:51;2.40;;;1.43;;
2722;SDS011;1369;53.216;10.396;2022-10-04T01:07:31;1.40;;;1.07;;
2722;SDS011;1369;53.216;10.396;2022-10-04T01:10:04;1.20;;;0.90;;
2722;SDS011;1369;53.216;10.396;2022-10-04T01:12:37;1.33;;;1.03;;
2722;SDS011;1369;53.216;10.396;2022-10-04T01:15:26;1.20;;;0.90;;
2722;SDS011;1369;53.216;10.396;2022-10-04T01:18:43;1.80;;;1.20;;
2722;SDS011;1369;53.216;10.396;2022-10-04T01:21:03;1.20;;;0.80;;
2722;SDS011;1369;53.216;10.396;2022-10-04T01:23:44;1.77;;;1.20;;
2722;SDS011;1369;53.216;10.396;2022-10-04T01:31:35;1.20;;;0.90;;
2722;SDS011;1369;53.216;10.396;2022-10-04T01:34:03;1.20;;;1.00;;
2722;SDS011;1369;53.216;10.396;2022-10-04T01:36:29;1.27;;;1.00;;
2722;SDS011;1369;53.216;10.396;2022-10-04T01:38:56;1.37;;;1.13;;
2722;SDS011;1369;53.216;10.396;2022-10-04T01:41:35;1.30;;;0.90;;
2722;SDS011;1369;53.216;10.396;2022-10-04T01:44:27;1.43;;;1.00;;
2722;SDS011;1369;53.216;10.396;2022-10-04T01:47:04;1.48;;;1.00;;
2722;SDS011;1369;53.216;10.396;2022-10-04T01:49:37;1.23;;;0.93;;
2722;SDS011;1369;53.216;10.396;2022-10-04T01:54:42;1.20;;;0.80;;
2722;SDS011;1369;53.216;10.396;2022-10-04T01:57:11;1.30;;;1.20;;
2722;SDS011;1369;53.216;10.396;2022-10-04T01:59:49;1.60;;;0.90;;
2722;SDS011;1369;53.216;10.396;2022-10-04T02:02:31;1.20;;;0.80;;
2722;SDS011;1369;53.216;10.396;2022-10-04T02:05:11;1.60;;;1.50;;
2722;SDS011;1369;53.216;10.396;2022-10-04T02:07:41;1.20;;;0.90;;
2722;SDS011;1369;53.216;10.396;2022-10-04T02:10:09;1.20;;;0.90;;
2722;SDS011;1369;53.216;10.396;2022-10-04T02:12:44;1.20;;;0.80;;
2722;SDS011;1369;53.216;10.396;2022-10-04T02:15:12;1.80;;;1.30;;
2722;SDS011;1369;53.216;10.396;2022-10-04T02:17:39;1.20;;;0.80;;
2722;SDS011;1369;53.216;10.396;2022-10-04T02:20:11;1.30;;;0.90;;
2722;SDS011;1369;53.216;10.396;2022-10-04T02:22:50;1.40;;;0.87;;
2722;SDS011;1369;53.216;10.396;2022-10-04T02:25:20;1.20;;;0.83;;
2722;SDS011;1369;53.216;10.396;2022-10-04T02:27:46;11.03;;;1.30;;
2722;SDS011;1369;53.216;10.396;2022-10-04T02:30:19;1.20;;;0.90;;
2722;SDS011;1369;53.216;10.396;2022-10-04T02:32:45;1.30;;;1.13;;
2722;SDS011;1369;53.216;10.396;2022-10-04T02:40:33;1.30;;;0.90;;
2722;SDS011;1369;53.216;10.396;2022-10-04T02:43:26;1.20;;;0.80;;
2722;SDS011;1369;53.216;10.396;2022-10-04T02:48:49;1.20;;;0.90;;
2722;SDS011;1369;53.216;10.396;2022-10-04T02:51:22;1.70;;;1.20;;
2722;SDS011;1369;53.216;10.396;2022-10-04T02:54:13;1.80;;;1.13;;
2722;SDS011;1369;53.216;10.396;2022-10-04T02:56:55;1.20;;;0.90;;
2722;SDS011;1369;53.216;10.396;2022-10-04T02:59:22;1.30;;;1.00;;
2722;SDS011;1369;53.216;10.396;2022-10-04T03:01:55;1.23;;;0.97;;
2722;SDS011;1369;53.216;10.396;2022-10-04T03:04:32;1.45;;;1.13;;
2722;SDS011;1369;53.216;10.396;2022-10-04T03:07:03;1.30;;;1.00;;
2722;SDS011;1369;53.216;10.396;2022-10-04T03:09:32;1.30;;;1.00;;
2722;SDS011;1369;53.216;10.396;2022-10-04T03:12:00;1.20;;;0.80;;
2722;SDS011;1369;53.216;10.396;2022-10-04T03:14:28;2.83;;;1.60;;
2722;SDS011;1369;53.216;10.396;2022-10-04T03:16:56;1.40;;;1.10;;
2722;SDS011;1369;53.216;10.396;2022-10-04T03:19:24;2.07;;;1.00;;
2722;SDS011;1369;53.216;10.396;2022-10-04T03:21:53;3.50;;;1.80;;
2722;SDS011;1369;53.216;10.396;2022-10-04T03:24:22;1.50;;;1.37;;
2722;SDS011;1369;53.216;10.396;2022-10-04T03:26:53;1.30;;;0.90;;
2722;SDS011;1369;53.216;10.396;2022-10-04T03:29:21;3.00;;;2.17;;
2722;SDS011;1369;53.216;10.396;2022-10-04T03:31:49;1.30;;;0.93;;
2722;SDS011;1369;53.216;10.396;2022-10-04T03:34:17;1.97;;;1.70;;
2722;SDS011;1369;53.216;10.396;2022-10-04T03:36:46;1.70;;;1.20;;
2722;SDS011;1369;53.216;10.396;2022-10-04T03:39:32;1.20;;;0.90;;
2722;SDS011;1369;53.216;10.396;2022-10-04T03:42:15;1.87;;;1.20;;
2722;SDS011;1369;53.216;10.396;2022-10-04T03:44:44;11.47;;;1.80;;
2722;SDS011;1369;53.216;10.396;2022-10-04T03:47:12;1.40;;;1.00;;
2722;SDS011;1369;53.216;10.396;2022-10-04T03:49:41;1.60;;;1.00;;
2722;SDS011;1369;53.216;10.396;2022-10-04T03:52:13;1.20;;;0.93;;
2722;SDS011;1369;53.216;10.396;2022-10-04T03:54:46;4.17;;;1.67;;
2722;SDS011;1369;53.216;10.396;2022-10-04T03:57:12;1.43;;;1.10;;
2722;SDS011;1369;53.216;10.396;2022-10-04T03:59:38;1.50;;;1.40;;
2722;SDS011;1369;53.216;10.396;2022-10-04T04:02:13;1.20;;;0.90;;
2722;SDS011;1369;53.216;10.396;2022-10-04T04:05:05;1.20;;;0.80;;
2722;SDS011;1369;53.216;10.396;2022-10-04T04:12:43;1.50;;;1.20;;
2722;SDS011;1369;53.216;10.396;2022-10-04T04:15:11;1.20;;;0.90;;
2722;SDS011;1369;53.216;10.396;2022-10-04T04:17:39;1.20;;;0.87;;
2722;SDS011;1369;53.216;10.396;2022-10-04T04:20:26;2.27;;;1.10;;
2722;SDS011;1369;53.216;10.396;2022-10-04T04:22:59;1.20;;;0.80;;
2722;SDS011;1369;53.216;10.396;2022-10-04T04:25:42;1.20;;;0.90;;
2722;SDS011;1369;53.216;10.396;2022-10-04T04:28:23;1.67;;;0.90;;
2722;SDS011;1369;53.216;10.396;2022-10-04T04:30:59;19.40;;;1.67;;
2722;SDS011;1369;53.216;10.396;2022-10-04T04:33:29;1.20;;;1.00;;
2722;SDS011;1369;53.216;10.396;2022-10-04T04:36:02;2.80;;;1.13;;
2722;SDS011;1369;53.216;10.396;2022-10-04T04:38:29;1.40;;;1.20;;
2722;SDS011;1369;53.216;10.396;2022-10-04T04:40:56;1.20;;;0.90;;
2722;SDS011;1369;53.216;10.396;2022-10-04T04:43:24;1.27;;;1.00;;
2722;SDS011;1369;53.216;10.396;2022-10-04T04:45:51;1.70;;;1.27;;
2722;SDS011;1369;53.216;10.396;2022-10-04T04:48:17;1.20;;;0.80;;
2722;SDS011;1369;53.216;10.396;2022-10-04T04:50:52;1.30;;;1.00;;
2722;SDS011;1369;53.216;10.396;2022-10-04T04:53:22;1.30;;;0.90;;
2722;SDS011;1369;53.216;10.396;2022-10-04T04:55:54;1.20;;;0.87;;
2722;SDS011;1369;53.216;10.396;2022-10-04T04:58:25;2.90;;;1.30;;
2722;SDS011;1369;53.216;10.396;2022-10-04T05:00:58;1.30;;;1.20;;
2722;SDS011;1369;53.216;10.396;2022-10-04T05:03:26;1.40;;;1.10;;
2722;SDS011;1369;53.216;10.396;2022-10-04T05:05:55;1.20;;;0.90;;
2722;SDS011;1369;53.216;10.396;2022-10-04T05:08:25;1.30;;;0.90;;
2722;SDS011;1369;53.216;10.396;2022-10-04T05:11:00;1.30;;;1.00;;
2722;SDS011;1369;53.216;10.396;2022-10-04T05:13:39;1.23;;;0.97;;
2722;SDS011;1369;53.216;10.396;2022-10-04T05:16:13;1.33;;;1.07;;
2722;SDS011;1369;53.216;10.396;2022-10-04T05:18:43;2.20;;;1.50;;
2722;SDS011;1369;53.216;10.396;2022-10-04T05:21:14;1.93;;;1.30;;
2722;SDS011;1369;53.216;10.396;2022-10-04T05:23:46;1.20;;;0.90;;
2722;SDS011;1369;53.216;10.396;2022-10-04T05:26:12;1.70;;;1.33;;
2722;SDS011;1369;53.216;10.396;2022-10-04T05:28:38;1.30;;;1.10;;
2722;SDS011;1369;53.216;10.396;2022-10-04T05:34:01;1.27;;;1.00;;
2722;SDS011;1369;53.216;10.396;2022-10-04T05:36:46;1.67;;;1.20;;
2722;SDS011;1369;53.216;10.396;2022-10-04T05:42:01;1.73;;;1.10;;
2722;SDS011;1369;53.216;10.396;2022-10-04T05:44:36;3.40;;;1.00;;
2722;SDS011;1369;53.216;10.396;2022-10-04T05:47:22;1.40;;;1.30;;
2722;SDS011;1369;53.216;10.396;2022-10-04T05:49:55;1.30;;;0.90;;
2722;SDS011;1369;53.216;10.396;2022-10-04T05:52:27;1.40;;;1.10;;
2722;SDS011;1369;53.216;10.396;2022-10-04T06:00:31;2.13;;;1.30;;
2722;SDS011;1369;53.216;10.396;2022-10-04T06:03:23;1.53;;;1.40;;
2722;SDS011;1369;53.216;10.396;2022-10-04T06:06:04;1.60;;;1.33;;
2722;SDS011;1369;53.216;10.396;2022-10-04T06:22:42;1.70;;;1.27;;
2722;SDS011;1369;53.216;10.396;2022-10-04T06:25:12;2.07;;;1.40;;
2722;SDS011;1369;53.216;10.396;2022-10-04T06:27:53;2.13;;;1.20;;
2722;SDS011;1369;53.216;10.396;2022-10-04T06:30:26;1.30;;;1.00;;
2722;SDS011;1369;53.216;10.396;2022-10-04T06:38:21;1.67;;;1.20;;
2722;SDS011;1369;53.216;10.396;2022-10-04T06:44:19;4.10;;;1.67;;
2722;SDS011;1369;53.216;10.396;2022-10-04T06:52:36;1.73;;;1.20;;
2722;SDS011;1369;53.216;10.396;2022-10-04T07:01:13;1.80;;;1.40;;
2722;SDS011;1369;53.216;10.396;2022-10-04T07:03:48;2.13;;;1.93;;
2722;SDS011;1369;53.216;10.396;2022-10-04T07:06:29;1.20;;;0.90;;
2722;SDS011;1369;53.216;10.396;2022-10-04T07:09:03;1.20;;;1.00;;
2722;SDS011;1369;53.216;10.396;2022-10-04T07:11:35;1.20;;;0.90;;
2722;SDS011;1369;53.216;10.396;2022-10-04T07:14:16;1.40;;;1.10;;
2722;SDS011;1369;53.216;10.396;2022-10-04T07:17:00;1.20;;;0.80;;
2722;SDS011;1369;53.216;10.396;2022-10-04T07:19:30;2.03;;;1.60;;
2722;SDS011;1369;53.216;10.396;2022-10-04T07:27:16;2.23;;;2.03;;
2722;SDS011;1369;53.216;10.396;2022-10-04T07:29:46;5.17;;;1.47;;
2722;SDS011;1369;53.216;10.396;2022-10-04T07:32:21;1.60;;;1.33;;
2722;SDS011;1369;53.216;10.396;2022-10-04T07:37:34;2.53;;;1.67;;
2722;SDS011;1369;53.216;10.396;2022-10-04T07:43:25;1.87;;;1.23;;
2722;SDS011;1369;53.216;10.396;2022-10-04T07:49:04;2.60;;;1.93;;
2722;SDS011;1369;53.216;10.396;2022-10-04T07:52:11;1.80;;;1.37;;
2722;SDS011;1369;53.216;10.396;2022-10-04T07:57:17;1.30;;;1.17;;
2722;SDS011;1369;53.216;10.396;2022-10-04T08:00:14;1.40;;;1.00;;
2722;SDS011;1369;53.216;10.396;2022-10-04T08:05:26;2.73;;;2.00;;
2722;SDS011;1369;53.216;10.396;2022-10-04T08:11:40;1.33;;;1.23;;
2722;SDS011;1369;53.216;10.396;2022-10-04T08:14:04;1.40;;;1.00;;
2722;SDS011;1369;53.216;10.396;2022-10-04T08:27:46;2.63;;;1.70;;
2722;SDS011;1369;53.216;10.396;2022-10-04T08:30:42;1.93;;;1.63;;
2722;SDS011;1369;53.216;10.396;2022-10-04T08:39:39;6.73;;;1.63;;
2722;SDS011;1369;53.216;10.396;2022-10-04T08:45:02;2.60;;;1.73;;
2722;SDS011;1369;53.216;10.396;2022-10-04T08:47:47;3.53;;;2.20;;
2722;SDS011;1369;53.216;10.396;2022-10-04T08:53:01;2.57;;;2.10;;
2722;SDS011;1369;53.216;10.396;2022-10-04T08:55:54;9.23;;;2.37;;
2722;SDS011;1369;53.216;10.396;2022-10-04T09:01:18;2.17;;;1.83;;
2722;SDS011;1369;53.216;10.396;2022-10-04T09:04:21;1.80;;;1.60;;
2722;SDS011;1369;53.216;10.396;2022-10-04T09:07:21;1.83;;;1.40;;
2722;SDS011;1369;53.216;10.396;2022-10-04T09:09:59;5.03;;;2.07;;
2722;SDS011;1369;53.216;10.396;2022-10-04T09:15:37;6.50;;;1.50;;
2722;SDS011;1369;53.216;10.396;2022-10-04T09:20:54;8.00;;;2.80;;
2722;SDS011;1369;53.216;10.396;2022-10-04T09:29:53;2.97;;;1.50;;
2722;SDS011;1369;53.216;10.396;2022-10-04T09:44:24;1.77;;;1.43;;
2722;SDS011;1369;53.216;10.396;2022-10-04T09:59:07;1.43;;;1.23;;
2722;SDS011;1369;53.216;10.396;2022-10-04T10:02:15;2.97;;;1.50;;
2722;SDS011;1369;53.216;10.396;2022-10-04T10:07:51;8.73;;;1.60;;
2722;SDS011;1369;53.216;10.396;2022-10-04T10:11:09;3.40;;;1.80;;
2722;SDS011;1369;53.216;10.396;2022-10-04T10:14:28;3.93;;;1.90;;
2722;SDS011;1369;53.216;10.396;2022-10-04T10:17:18;3.30;;;2.20;;
2722;SDS011;1369;53.216;10.396;2022-10-04T10:26:18;3.33;;;1.83;;
2722;SDS011;1369;53.216;10.396;2022-10-04T10:40:15;7.63;;;1.57;;
2722;SDS011;1369;53.216;10.396;2022-10-04T10:46:01;1.73;;;1.40;;
2722;SDS011;1369;53.216;10.396;2022-10-04T11:02:41;2.40;;;2.00;;
2722;SDS011;1369;53.216;10.396;2022-10-04T11:11:10;4.40;;;1.97;;
2722;SDS011;1369;53.216;10.396;2022-10-04T11:13:46;1.93;;;1.73;;
2722;SDS011;1369;53.216;10.396;2022-10-04T11:19:31;1.90;;;1.60;;
2722;SDS011;1369;53.216;10.396;2022-10-04T11:22:25;1.90;;;1.30;;
2722;SDS011;1369;53.216;10.396;2022-10-04T11:25:21;1.50;;;1.40;;
2722;SDS011;1369;53.216;10.396;2022-10-04T11:28:19;1.77;;;1.47;;
2722;SDS011;1369;53.216;10.396;2022-10-04T11:31:05;1.50;;;1.30;;
2722;SDS011;1369;53.216;10.396;2022-10-04T11:42:11;5.20;;;1.40;;
2722;SDS011;1369;53.216;10.396;2022-10-04T11:47:40;3.50;;;1.37;;
2722;SDS011;1369;53.216;10.396;2022-10-04T11:53:00;2.73;;;1.60;;
2722;SDS011;1369;53.216;10.396;2022-10-04T12:07:37;1.33;;;1.13;;
2722;SDS011;1369;53.216;10.396;2022-10-04T12:12:56;1.50;;;1.30;;
2722;SDS011;1369;53.216;10.396;2022-10-04T12:21:16;1.30;;;1.00;;
2722;SDS011;1369;53.216;10.396;2022-10-04T12:24:13;1.30;;;1.00;;
2722;SDS011;1369;53.216;10.396;2022-10-04T12:34:31;1.80;;;1.40;;
2722;SDS011;1369;53.216;10.396;2022-10-04T12:37:28;1.53;;;1.10;;
2722;SDS011;1369;53.216;10.396;2022-10-04T12:40:26;1.70;;;1.43;;
2722;SDS011;1369;53.216;10.396;2022-10-04T12:48:45;2.60;;;1.83;;
2722;SDS011;1369;53.216;10.396;2022-10-04T12:51:22;4.40;;;1.50;;
2722;SDS011;1369;53.216;10.396;2022-10-04T12:54:14;1.50;;;1.20;;
2722;SDS011;1369;53.216;10.396;2022-10-04T12:59:39;1.60;;;1.40;;
2722;SDS011;1369;53.216;10.396;2022-10-04T13:07:59;1.87;;;1.30;;
2722;SDS011;1369;53.216;10.396;2022-10-04T13:16:49;1.30;;;1.10;;
2722;SDS011;1369;53.216;10.396;2022-10-04T13:25:00;1.50;;;1.30;;
2722;SDS011;1369;53.216;10.396;2022-10-04T13:28:00;1.40;;;1.10;;
2722;SDS011;1369;53.216;10.396;2022-10-04T13:33:38;1.40;;;1.20;;
2722;SDS011;1369;53.216;10.396;2022-10-04T13:38:51;1.40;;;1.27;;
2722;SDS011;1369;53.216;10.396;2022-10-04T13:41:30;3.30;;;3.00;;
2722;SDS011;1369;53.216;10.396;2022-10-04T13:49:39;3.00;;;2.07;;
2722;SDS011;1369;53.216;10.396;2022-10-04T14:01:04;1.73;;;1.43;;
2722;SDS011;1369;53.216;10.396;2022-10-04T14:12:57;2.33;;;1.83;;
2722;SDS011;1369;53.216;10.396;2022-10-04T14:24:30;5.10;;;1.70;;
2722;SDS011;1369;53.216;10.396;2022-10-04T14:30:19;1.67;;;1.23;;
2722;SDS011;1369;53.216;10.396;2022-10-04T14:35:49;1.43;;;1.07;;
2722;SDS011;1369;53.216;10.396;2022-10-04T14:38:47;1.57;;;1.20;;
2722;SDS011;1369;53.216;10.396;2022-10-04T15:06:57;3.40;;;1.30;;
2722;SDS011;1369;53.216;10.396;2022-10-04T15:17:36;1.30;;;1.10;;
2722;SDS011;1369;53.216;10.396;2022-10-04T15:20:23;2.30;;;1.10;;
2722;SDS011;1369;53.216;10.396;2022-10-04T15:22:53;1.60;;;1.20;;
2722;SDS011;1369;53.216;10.396;2022-10-04T15:25:38;1.60;;;1.17;;
2722;SDS011;1369;53.216;10.396;2022-10-04T15:28:10;1.50;;;1.10;;
2722;SDS011;1369;53.216;10.396;2022-10-04T15:31:08;1.57;;;1.13;;
2722;SDS011;1369;53.216;10.396;2022-10-04T15:33:40;1.77;;;1.57;;
2722;SDS011;1369;53.216;10.396;2022-10-04T15:36:48;1.37;;;1.20;;
2722;SDS011;1369;53.216;10.396;2022-10-04T15:47:31;2.47;;;1.97;;
2722;SDS011;1369;53.216;10.396;2022-10-04T16:01:25;1.70;;;1.20;;
2722;SDS011;1369;53.216;10.396;2022-10-04T16:06:55;1.90;;;1.67;;
2722;SDS011;1369;53.216;10.396;2022-10-04T16:15:10;2.43;;;1.43;;
2722;SDS011;1369;53.216;10.396;2022-10-04T16:20:53;1.60;;;1.40;;
2722;SDS011;1369;53.216;10.396;2022-10-04T16:23:30;2.00;;;1.87;;
2722;SDS011;1369;53.216;10.396;2022-10-04T16:26:04;3.73;;;2.10;;
2722;SDS011;1369;53.216;10.396;2022-10-04T16:28:37;3.90;;;2.33;;
2722;SDS011;1369;53.216;10.396;2022-10-04T16:31:25;3.27;;;2.97;;
2722;SDS011;1369;53.216;10.396;2022-10-04T16:34:07;2.47;;;1.80;;
2722;SDS011;1369;53.216;10.396;2022-10-04T16:39:39;1.93;;;1.73;;
2722;SDS011;1369;53.216;10.396;2022-10-04T16:42:49;1.80;;;1.20;;
2722;SDS011;1369;53.216;10.396;2022-10-04T16:56:09;2.93;;;2.30;;
2722;SDS011;1369;53.216;10.396;2022-10-04T16:58:49;2.53;;;2.33;;
2722;SDS011;1369;53.216;10.396;2022-10-04T17:01:49;3.50;;;3.17;;
2722;SDS011;1369;53.216;10.396;2022-10-04T17:04:41;3.70;;;3.30;;
2722;SDS011;1369;53.216;10.396;2022-10-04T17:15:48;3.13;;;2.30;;
2722;SDS011;1369;53.216;10.396;2022-10-04T17:21:56;6.83;;;3.07;;
2722;SDS011;1369;53.216;10.396;2022-10-04T17:24:35;4.00;;;2.60;;
2722;SDS011;1369;53.216;10.396;2022-10-04T17:30:20;5.03;;;3.30;;
2722;SDS011;1369;53.216;10.396;2022-10-04T17:41:42;5.20;;;2.30;;
2722;SDS011;1369;53.216;10.396;2022-10-04T17:46:58;5.40;;;2.77;;
2722;SDS011;1369;53.216;10.396;2022-10-04T17:50:00;2.70;;;2.50;;
2722;SDS011;1369;53.216;10.396;2022-10-04T17:52:49;2.23;;;2.00;;
2722;SDS011;1369;53.216;10.396;2022-10-04T17:55:45;2.00;;;1.63;;
2722;SDS011;1369;53.216;10.396;2022-10-04T17:58:25;2.77;;;2.13;;
2722;SDS011;1369;53.216;10.396;2022-10-04T18:01:25;2.97;;;2.50;;
2722;SDS011;1369;53.216;10.396;2022-10-04T18:03:55;4.80;;;3.17;;
2722;SDS011;1369;53.216;10.396;2022-10-04T18:06:31;3.27;;;2.73;;
2722;SDS011;1369;53.216;10.396;2022-10-04T18:08:59;2.37;;;2.17;;
2722;SDS011;1369;53.216;10.396;2022-10-04T18:11:45;3.37;;;3.03;;
2722;SDS011;1369;53.216;10.396;2022-10-04T18:17:12;2.80;;;2.60;;
2722;SDS011;1369;53.216;10.396;2022-10-04T18:22:47;2.60;;;2.40;;
2722;SDS011;1369;53.216;10.396;2022-10-04T18:25:17;2.80;;;2.60;;
2722;SDS011;1369;53.216;10.396;2022-10-04T18:33:21;4.83;;;3.50;;
2722;SDS011;1369;53.216;10.396;2022-10-04T18:35:52;3.13;;;2.70;;
2722;SDS011;1369;53.216;10.396;2022-10-04T18:38:34;3.10;;;2.80;;
2722;SDS011;1369;53.216;10.396;2022-10-04T18:41:00;4.67;;;3.00;;
2722;SDS011;1369;53.216;10.396;2022-10-04T18:46:21;2.87;;;2.30;;
2722;SDS011;1369;53.216;10.396;2022-10-04T18:48:59;4.17;;;2.40;;
2722;SDS011;1369;53.216;10.396;2022-10-04T18:54:34;2.83;;;2.63;;
2722;SDS011;1369;53.216;10.396;2022-10-04T18:59:54;4.13;;;3.73;;
2722;SDS011;1369;53.216;10.396;2022-10-04T19:03:22;2.07;;;1.87;;
2722;SDS011;1369;53.216;10.396;2022-10-04T19:17:25;2.70;;;2.47;;
2722;SDS011;1369;53.216;10.396;2022-10-04T19:22:39;4.23;;;2.63;;
2722;SDS011;1369;53.216;10.396;2022-10-04T19:25:33;2.00;;;1.40;;
2722;SDS011;1369;53.216;10.396;2022-10-04T19:33:33;1.87;;;1.67;;
2722;SDS011;1369;53.216;10.396;2022-10-04T19:42:12;1.80;;;1.60;;
2722;SDS011;1369;53.216;10.396;2022-10-04T19:44:54;4.60;;;2.57;;
2722;SDS011;1369;53.216;10.396;2022-10-04T19:58:19;3.30;;;2.50;;
2722;SDS011;1369;53.216;10.396;2022-10-04T20:00:57;5.00;;;3.30;;
2722;SDS011;1369;53.216;10.396;2022-10-04T20:03:23;4.20;;;3.53;;
2722;SDS011;1369;53.216;10.396;2022-10-04T20:05:50;2.70;;;2.50;;
2722;SDS011;1369;53.216;10.396;2022-10-04T20:11:19;2.77;;;2.57;;
2722;SDS011;1369;53.216;10.396;2022-10-04T20:19:19;3.13;;;2.40;;
2722;SDS011;1369;53.216;10.396;2022-10-04T20:27:01;2.87;;;2.67;;
2722;SDS011;1369;53.216;10.396;2022-10-04T20:34:54;1.57;;;1.40;;
2722;SDS011;1369;53.216;10.396;2022-10-04T20:37:21;2.10;;;1.80;;
2722;SDS011;1369;53.216;10.396;2022-10-04T20:41:09;4.17;;;2.87;;
2722;SDS011;1369;53.216;10.396;2022-10-04T20:45:45;3.37;;;2.60;;
2722;SDS011;1369;53.216;10.396;2022-10-04T20:50:48;3.17;;;2.90;;
2722;SDS011;1369;53.216;10.396;2022-10-04T20:55:49;2.37;;;2.17;;
2722;SDS011;1369;53.216;10.396;2022-10-04T20:58:26;1.60;;;1.40;;
2722;SDS011;1369;53.216;10.396;2022-10-04T21:00:59;3.20;;;2.03;;
2722;SDS011;1369;53.216;10.396;2022-10-04T21:07:03;1.83;;;1.60;;
2722;SDS011;1369;53.216;10.396;2022-10-04T21:09:30;1.90;;;1.63;;
2722;SDS011;1369;53.216;10.396;2022-10-04T21:11:57;3.50;;;2.13;;
2722;SDS011;1369;53.216;10.396;2022-10-04T21:14:24;2.70;;;2.13;;
2722;SDS011;1369;53.216;10.396;2022-10-04T21:16:55;3.97;;;2.37;;
2722;SDS011;1369;53.216;10.396;2022-10-04T21:22:06;2.73;;;1.90;;
2722;SDS011;1369;53.216;10.396;2022-10-04T21:27:10;1.50;;;1.20;;
2722;SDS011;1369;53.216;10.396;2022-10-04T21:29:48;2.33;;;2.13;;
2722;SDS011;1369;53.216;10.396;2022-10-04T21:32:14;3.27;;;2.37;;
2722;SDS011;1369;53.216;10.396;2022-10-04T21:34:39;2.20;;;2.00;;
2722;SDS011;1369;53.216;10.396;2022-10-04T21:37:05;5.00;;;1.63;;
2722;SDS011;1369;53.216;10.396;2022-10-04T21:39:30;2.97;;;2.03;;
2722;SDS011;1369;53.216;10.396;2022-10-04T21:41:56;2.47;;;2.27;;
2722;SDS011;1369;53.216;10.396;2022-10-04T21:44:21;4.30;;;1.90;;
2722;SDS011;1369;53.216;10.396;2022-10-04T21:46:47;2.90;;;2.37;;
2722;SDS011;1369;53.216;10.396;2022-10-04T21:49:12;1.60;;;1.50;;
2722;SDS011;1369;53.216;10.396;2022-10-04T21:51:37;1.80;;;1.70;;
2722;SDS011;1369;53.216;10.396;2022-10-04T21:54:04;1.90;;;1.70;;
2722;SDS011;1369;53.216;10.396;2022-10-04T21:56:31;2.17;;;1.97;;
2722;SDS011;1369;53.216;10.396;2022-10-04T21:58:56;1.80;;;1.47;;
2722;SDS011;1369;53.216;10.396;2022-10-04T22:01:22;2.37;;;1.83;;
2722;SDS011;1369;53.216;10.396;2022-10-04T22:03:48;3.40;;;2.00;;
2722;SDS011;1369;53.216;10.396;2022-10-04T22:06:14;2.63;;;2.00;;
2722;SDS011;1369;53.216;10.396;2022-10-04T22:08:39;2.47;;;2.07;;
2722;SDS011;1369;53.216;10.396;2022-10-04T22:11:06;6.23;;;2.20;;
2722;SDS011;1369;53.216;10.396;2022-10-04T22:13:32;2.00;;;1.60;;
2722;SDS011;1369;53.216;10.396;2022-10-04T22:15:58;3.10;;;1.83;;
2722;SDS011;1369;53.216;10.396;2022-10-04T22:18:24;1.60;;;1.50;;
2722;SDS011;1369;53.216;10.396;2022-10-04T22:20:49;2.00;;;1.80;;
2722;SDS011;1369;53.216;10.396;2022-10-04T22:23:16;2.27;;;1.50;;
2722;SDS011;1369;53.216;10.396;2022-10-04T22:25:44;1.73;;;1.63;;
2722;SDS011;1369;53.216;10.396;2022-10-04T22:28:26;3.10;;;2.33;;
2722;SDS011;1369;53.216;10.396;2022-10-04T22:30:53;2.00;;;1.80;;
2722;SDS011;1369;53.216;10.396;2022-10-04T22:36:11;1.60;;;1.30;;
2722;SDS011;1369;53.216;10.396;2022-10-04T22:41:18;1.47;;;1.30;;
2722;SDS011;1369;53.216;10.396;2022-10-04T22:43:44;2.30;;;1.80;;
2722;SDS011;1369;53.216;10.396;2022-10-04T22:46:14;2.27;;;2.07;;
2722;SDS011;1369;53.216;10.396;2022-10-04T22:48:42;1.80;;;1.67;;
2722;SDS011;1369;53.216;10.396;2022-10-04T22:51:10;2.17;;;1.97;;
2722;SDS011;1369;53.216;10.396;2022-10-04T22:53:38;3.63;;;2.30;;
2722;SDS011;1369;53.216;10.396;2022-10-04T22:56:10;2.50;;;1.60;;
2722;SDS011;1369;53.216;10.396;2022-10-04T22:58:37;2.30;;;2.10;;
2722;SDS011;1369;53.216;10.396;2022-10-04T23:01:08;2.00;;;1.80;;
2722;SDS011;1369;53.216;10.396;2022-10-04T23:03:40;1.83;;;1.63;;
2722;SDS011;1369;53.216;10.396;2022-10-04T23:06:09;2.63;;;1.93;;
2722;SDS011;1369;53.216;10.396;2022-10-04T23:08:38;3.93;;;1.97;;
2722;SDS011;1369;53.216;10.396;2022-10-04T23:11:04;2.70;;;1.40;;
2722;SDS011;1369;53.216;10.396;2022-10-04T23:13:30;1.60;;;1.30;;
2722;SDS011;1369;53.216;10.396;2022-10-04T23:16:00;1.93;;;1.60;;
2722;SDS011;1369;53.216;10.396;2022-10-04T23:18:38;2.60;;;1.83;;
2722;SDS011;1369;53.216;10.396;2022-10-04T23:21:07;3.50;;;1.90;;
2722;SDS011;1369;53.216;10.396;2022-10-04T23:23:45;3.00;;;2.63;;
2722;SDS011;1369;53.216;10.396;2022-10-04T23:26:15;3.10;;;2.80;;
2722;SDS011;1369;53.216;10.396;2022-10-04T23:28:51;1.63;;;1.53;;
2722;SDS011;1369;53.216;10.396;2022-10-04T23:31:26;3.53;;;3.23;;
2722;SDS011;1369;53.216;10.396;2022-10-04T23:33:52;2.33;;;2.13;;
2722;SDS011;1369;53.216;10.396;2022-10-04T23:36:21;5.03;;;2.80;;
2722;SDS011;1369;53.216;10.396;2022-10-04T23:38:54;2.57;;;2.13;;
2722;SDS011;1369;53.216;10.396;2022-10-04T23:41:22;1.70;;;1.57;;
2722;SDS011;1369;53.216;10.396;2022-10-04T23:43:48;2.20;;;2.00;;
2722;SDS011;1369;53.216;10.396;2022-10-04T23:46:14;11.37;;;3.93;;
2722;SDS011;1369;53.216;10.396;2022-10-04T23:48:43;2.43;;;2.23;;
2722;SDS011;1369;53.216;10.396;2022-10-04T23:51:09;2.93;;;2.60;;
2722;SDS011;1369;53.216;10.396;2022-10-04T23:53:38;2.50;;;2.30;;
2722;SDS011;1369;53.216;10.396;2022-10-04T23:56:08;2.30;;;1.53;;
2722;SDS011;1369;53.216;10.396;2022-10-04T23:58:41;2.93;;;2.63;;
